Time,TemperatureF,DewpointF,PressureIn,WindDirection,WindDirectionDegrees,WindSpeedMPH,WindSpeedGustMPH,Humidity,HourlyPrecipIn,Conditions,Clouds,dailyrainin,SoftwareType,DateUTC
2013-01-23 00:05:00,29.8,11.5,30.33,SE,135,0.0,0.0,46,0.00,,,0.00,WUHU21623XXSP,2013-01-23 06:05:00,
2013-01-23 00:10:00,29.7,11.3,30.34,SE,135,0.0,0.0,46,0.00,,,0.00,WUHU21623XXSP,2013-01-23 06:10:00,
2013-01-23 00:15:00,29.3,11.0,30.33,SE,135,0.0,0.0,46,0.00,,,0.00,WUHU21623XXSP,2013-01-23 06:15:00,
2013-01-23 00:20:00,28.9,10.7,30.33,SE,135,0.0,0.0,46,0.00,,,0.00,WUHU21623XXSP,2013-01-23 06:20:00,
2013-01-23 00:25:00,28.6,10.3,30.34,SE,135,0.0,0.0,46,0.00,,,0.00,WUHU21623XXSP,2013-01-23 06:25:00,
2013-01-23 00:31:00,28.0,9.8,30.33,SE,135,0.0,0.0,46,0.00,,,0.00,WUHU21623XXSP,2013-01-23 06:31:00,
2013-01-23 00:36:00,27.7,9.5,30.33,SE,135,0.0,0.0,46,0.00,,,0.00,WUHU21623XXSP,2013-01-23 06:36:00,
2013-01-23 00:41:00,27.5,9.3,30.34,SE,135,0.0,0.0,46,0.00,,,0.00,WUHU21623XXSP,2013-01-23 06:41:00,
2013-01-23 00:46:00,27.0,8.8,30.33,SE,135,0.0,0.0,46,0.00,,,0.00,WUHU21623XXSP,2013-01-23 06:46:00,
2013-01-23 00:51:00,26.8,8.6,30.33,SE,135,0.0,0.0,46,0.00,,,0.00,WUHU21623XXSP,2013-01-23 06:51:00,
2013-01-23 00:56:00,26.4,8.8,30.33,SE,135,0.0,0.0,47,0.00,,,0.00,WUHU21623XXSP,2013-01-23 06:56:00,
2013-01-23 01:01:00,26.2,8.6,30.33,SE,135,0.0,0.0,47,0.00,,,0.00,WUHU21623XXSP,2013-01-23 07:01:00,
2013-01-23 01:07:00,26.2,8.6,30.33,SE,135,0.0,0.0,47,0.00,,,0.00,WUHU21623XXSP,2013-01-23 07:07:00,
2013-01-23 01:12:00,26.1,8.9,30.33,SE,135,0.0,0.0,48,0.00,,,0.00,WUHU21623XXSP,2013-01-23 07:12:00,
2013-01-23 01:17:00,25.9,8.8,30.33,SE,135,0.0,0.0,48,0.00,,,0.00,WUHU21623XXSP,2013-01-23 07:17:00,
2013-01-23 01:22:00,25.7,8.6,30.33,SE,135,0.0,0.0,48,0.00,,,0.00,WUHU21623XXSP,2013-01-23 07:22:00,
2013-01-23 01:27:00,25.7,8.6,30.33,SE,135,0.0,0.0,48,0.00,,,0.00,WUHU21623XXSP,2013-01-23 07:27:00,
2013-01-23 01:32:00,25.7,9.1,30.33,SE,135,0.0,0.0,49,0.00,,,0.00,WUHU21623XXSP,2013-01-23 07:32:00,
2013-01-23 01:37:00,25.5,8.9,30.33,SE,135,0.0,0.0,49,0.00,,,0.00,WUHU21623XXSP,2013-01-23 07:37:00,
2013-01-23 01:42:00,25.5,8.9,30.33,SE,135,0.0,0.0,49,0.00,,,0.00,WUHU21623XXSP,2013-01-23 07:42:00,
2013-01-23 01:47:00,25.5,8.9,30.33,SE,135,0.0,0.0,49,0.00,,,0.00,WUHU21623XXSP,2013-01-23 07:47:00,
2013-01-23 01:53:00,25.5,9.4,30.33,SE,135,0.0,0.0,50,0.00,,,0.00,WUHU21623XXSP,2013-01-23 07:53:00,
2013-01-23 01:58:00,25.5,9.4,30.33,SE,135,0.0,0.0,50,0.00,,,0.00,WUHU21623XXSP,2013-01-23 07:58:00,
2013-01-23 02:03:00,25.5,9.4,30.33,SE,135,0.0,0.0,50,0.00,,,0.00,WUHU21623XXSP,2013-01-23 08:03:00,
2013-01-23 02:08:00,25.3,9.3,30.33,SE,135,0.0,0.0,50,0.00,,,0.00,WUHU21623XXSP,2013-01-23 08:08:00,
2013-01-23 02:13:00,25.3,9.3,30.33,SE,135,0.0,0.0,50,0.00,,,0.00,WUHU21623XXSP,2013-01-23 08:13:00,
2013-01-23 02:18:00,25.3,9.3,30.34,SE,135,0.0,0.0,50,0.00,,,0.00,WUHU21623XXSP,2013-01-23 08:18:00,
2013-01-23 02:23:00,25.2,9.1,30.33,SE,135,0.0,0.0,50,0.00,,,0.00,WUHU21623XXSP,2013-01-23 08:23:00,
2013-01-23 02:28:00,25.2,9.1,30.34,SE,135,0.0,0.0,50,0.00,,,0.00,WUHU21623XXSP,2013-01-23 08:28:00,
2013-01-23 02:33:00,25.0,8.9,30.34,SE,135,0.0,0.0,50,0.00,,,0.00,WUHU21623XXSP,2013-01-23 08:33:00,
2013-01-23 02:39:00,25.0,8.9,30.34,SE,135,0.0,0.0,50,0.00,,,0.00,WUHU21623XXSP,2013-01-23 08:39:00,
2013-01-23 02:44:00,24.8,9.2,30.34,SE,135,0.0,0.0,51,0.00,,,0.00,WUHU21623XXSP,2013-01-23 08:44:00,
2013-01-23 02:49:00,25.0,9.4,30.33,SE,135,0.0,0.0,51,0.00,,,0.00,WUHU21623XXSP,2013-01-23 08:49:00,
2013-01-23 02:54:00,24.8,9.2,30.33,SE,135,0.0,1.3,51,0.00,,,0.00,WUHU21623XXSP,2013-01-23 08:54:00,
2013-01-23 02:59:00,24.6,9.2,30.33,SE,135,0.0,1.3,51,0.00,,,0.00,WUHU21623XXSP,2013-01-23 08:59:00,
2013-01-23 03:04:00,24.4,8.9,30.33,SE,135,0.0,0.0,51,0.00,,,0.00,WUHU21623XXSP,2013-01-23 09:04:00,
2013-01-23 03:09:00,24.4,9.3,30.33,SE,135,0.0,0.0,52,0.00,,,0.00,WUHU21623XXSP,2013-01-23 09:09:00,
2013-01-23 03:14:00,24.4,9.3,30.33,SE,135,0.0,0.0,52,0.00,,,0.00,WUHU21623XXSP,2013-01-23 09:14:00,
2013-01-23 03:20:00,24.4,9.3,30.33,SE,135,0.0,0.0,52,0.00,,,0.00,WUHU21623XXSP,2013-01-23 09:20:00,
2013-01-23 03:25:00,24.4,9.7,30.32,SE,135,0.0,0.0,53,0.00,,,0.00,WUHU21623XXSP,2013-01-23 09:25:00,
2013-01-23 03:30:00,24.4,9.7,30.32,SE,135,0.0,0.0,53,0.00,,,0.00,WUHU21623XXSP,2013-01-23 09:30:00,
2013-01-23 03:35:00,24.3,9.5,30.32,SE,135,0.0,0.0,53,0.00,,,0.00,WUHU21623XXSP,2013-01-23 09:35:00,
2013-01-23 03:40:00,24.3,9.5,30.32,SE,135,0.0,0.0,53,0.00,,,0.00,WUHU21623XXSP,2013-01-23 09:40:00,
2013-01-23 03:45:00,24.1,9.3,30.32,SE,135,0.0,0.0,53,0.00,,,0.00,WUHU21623XXSP,2013-01-23 09:45:00,
2013-01-23 03:50:00,24.1,9.3,30.33,SE,135,0.0,0.0,53,0.00,,,0.00,WUHU21623XXSP,2013-01-23 09:50:00,
2013-01-23 03:55:00,24.1,9.3,30.32,SE,135,0.0,0.0,53,0.00,,,0.00,WUHU21623XXSP,2013-01-23 09:55:00,
2013-01-23 04:00:00,24.1,9.3,30.33,SE,135,0.0,0.0,53,0.00,,,0.00,WUHU21623XXSP,2013-01-23 10:00:00,
2013-01-23 04:05:00,24.1,9.3,30.32,SE,135,0.0,0.0,53,0.00,,,0.00,WUHU21623XXSP,2013-01-23 10:05:00,
2013-01-23 04:10:00,23.9,9.6,30.32,SE,135,0.0,0.0,54,0.00,,,0.00,WUHU21623XXSP,2013-01-23 10:10:00,
2013-01-23 04:15:00,23.9,9.6,30.32,SE,135,0.0,0.0,54,0.00,,,0.00,WUHU21623XXSP,2013-01-23 10:15:00,
2013-01-23 04:20:00,23.9,9.6,30.33,SE,135,0.0,0.0,54,0.00,,,0.00,WUHU21623XXSP,2013-01-23 10:20:00,
2013-01-23 04:25:00,23.9,9.6,30.33,SE,135,0.0,0.0,54,0.00,,,0.00,WUHU21623XXSP,2013-01-23 10:25:00,
2013-01-23 04:30:00,23.9,9.6,30.33,SE,135,1.8,1.8,54,0.00,,,0.00,WUHU21623XXSP,2013-01-23 10:30:00,
2013-01-23 04:35:00,23.9,10.0,30.32,SE,135,1.1,1.8,55,0.00,,,0.00,WUHU21623XXSP,2013-01-23 10:35:00,
2013-01-23 04:40:00,23.9,10.0,30.32,SE,135,2.0,2.9,55,0.00,,,0.00,WUHU21623XXSP,2013-01-23 10:40:00,
2013-01-23 04:45:00,23.9,10.4,30.32,SE,135,2.9,2.9,56,0.00,,,0.00,WUHU21623XXSP,2013-01-23 10:45:00,
2013-01-23 04:50:00,23.9,10.4,30.32,SE,135,2.0,2.9,56,0.00,,,0.00,WUHU21623XXSP,2013-01-23 10:50:00,
2013-01-23 04:55:00,24.1,11.0,30.31,SE,135,2.7,2.7,57,0.00,,,0.00,WUHU21623XXSP,2013-01-23 10:55:00,
2013-01-23 05:00:00,24.3,11.1,30.31,SE,135,3.1,3.1,57,0.00,,,0.00,WUHU21623XXSP,2013-01-23 11:00:00,
2013-01-23 05:05:00,24.3,11.1,30.32,SE,135,3.1,3.1,57,0.00,,,0.00,WUHU21623XXSP,2013-01-23 11:05:00,
2013-01-23 05:10:00,24.3,11.1,30.32,SE,135,2.0,3.1,57,0.00,,,0.00,WUHU21623XXSP,2013-01-23 11:10:00,
2013-01-23 05:15:00,24.4,11.3,30.32,SE,135,2.0,2.0,57,0.00,,,0.00,WUHU21623XXSP,2013-01-23 11:15:00,
2013-01-23 05:20:00,24.3,11.1,30.32,SE,135,2.5,2.5,57,0.00,,,0.00,WUHU21623XXSP,2013-01-23 11:20:00,
2013-01-23 05:25:00,24.4,11.7,30.33,SE,135,0.7,2.5,58,0.00,,,0.00,WUHU21623XXSP,2013-01-23 11:25:00,
2013-01-23 05:30:00,24.4,11.7,30.33,SE,135,1.6,2.5,58,0.00,,,0.00,WUHU21623XXSP,2013-01-23 11:30:00,
2013-01-23 05:35:00,24.4,11.7,30.32,SE,135,0.0,1.8,58,0.00,,,0.00,WUHU21623XXSP,2013-01-23 11:35:00,
2013-01-23 05:40:00,24.3,11.1,30.32,SE,135,1.1,1.1,57,0.00,,,0.00,WUHU21623XXSP,2013-01-23 11:40:00,
2013-01-23 05:46:00,24.1,11.0,30.32,SE,135,0.0,1.1,57,0.00,,,0.00,WUHU21623XXSP,2013-01-23 11:46:00,
2013-01-23 05:52:00,24.1,11.0,30.33,SE,135,0.0,0.0,57,0.00,,,0.00,WUHU21623XXSP,2013-01-23 11:52:00,
2013-01-23 05:57:00,24.1,11.0,30.33,SE,135,0.0,0.0,57,0.00,,,0.00,WUHU21623XXSP,2013-01-23 11:57:00,
2013-01-23 06:02:00,24.3,11.6,30.33,SE,135,1.8,1.8,58,0.00,,,0.00,WUHU21623XXSP,2013-01-23 12:02:00,
2013-01-23 06:07:00,24.3,11.6,30.32,SE,135,3.6,3.6,58,0.00,,,0.00,WUHU21623XXSP,2013-01-23 12:07:00,
2013-01-23 06:12:00,24.4,12.1,30.32,ESE,112,2.7,3.6,59,0.00,,,0.00,WUHU21623XXSP,2013-01-23 12:12:00,
2013-01-23 06:17:00,24.6,12.3,30.33,ESE,112,2.5,3.4,59,0.00,,,0.00,WUHU21623XXSP,2013-01-23 12:17:00,
2013-01-23 06:22:00,25.0,13.1,30.32,ESE,112,2.9,2.9,60,0.00,,,0.00,WUHU21623XXSP,2013-01-23 12:22:00,
2013-01-23 06:27:00,25.0,13.1,30.33,ESE,112,2.2,2.9,60,0.00,,,0.00,WUHU21623XXSP,2013-01-23 12:27:00,
2013-01-23 06:32:00,25.2,13.2,30.32,ESE,112,3.1,3.8,60,0.00,,,0.00,WUHU21623XXSP,2013-01-23 12:32:00,
2013-01-23 06:37:00,25.2,13.2,30.33,ESE,112,3.1,3.8,60,0.00,,,0.00,WUHU21623XXSP,2013-01-23 12:37:00,
2013-01-23 06:42:00,25.2,13.2,30.32,ESE,112,2.9,3.4,60,0.00,,,0.00,WUHU21623XXSP,2013-01-23 12:42:00,
2013-01-23 06:48:00,25.3,13.7,30.32,ESE,112,2.9,3.4,61,0.00,,,0.00,WUHU21623XXSP,2013-01-23 12:48:00,
2013-01-23 06:53:00,25.3,13.7,30.33,ESE,112,3.1,3.4,61,0.00,,,0.00,WUHU21623XXSP,2013-01-23 12:53:00,
2013-01-23 06:58:00,25.5,13.9,30.32,SE,135,2.7,3.8,61,0.00,,,0.00,WUHU21623XXSP,2013-01-23 12:58:00,
2013-01-23 07:03:00,25.5,13.9,30.33,ESE,112,3.4,3.8,61,0.00,,,0.00,WUHU21623XXSP,2013-01-23 13:03:00,
2013-01-23 07:08:00,25.7,14.1,30.33,ESE,112,2.7,3.4,61,0.00,,,0.00,WUHU21623XXSP,2013-01-23 13:08:00,
2013-01-23 07:13:00,26.1,14.8,30.32,ESE,112,3.6,3.6,62,0.00,,,0.00,WUHU21623XXSP,2013-01-23 13:13:00,
2013-01-23 07:18:00,26.2,14.9,30.32,ESE,112,4.5,4.5,62,0.00,,,0.00,WUHU21623XXSP,2013-01-23 13:18:00,
2013-01-23 07:23:00,26.6,15.6,30.32,SE,135,3.8,4.5,63,0.00,,,0.00,WUHU21623XXSP,2013-01-23 13:23:00,
2013-01-23 07:28:00,27.0,16.0,30.32,ESE,112,3.6,3.8,63,0.00,,,0.00,WUHU21623XXSP,2013-01-23 13:28:00,
2013-01-23 07:34:00,27.7,17.1,30.32,ESE,112,3.6,3.6,64,0.00,,,0.00,WUHU21623XXSP,2013-01-23 13:34:00,
2013-01-23 07:39:00,28.0,17.4,30.32,ESE,112,3.6,3.6,64,0.00,,,0.00,WUHU21623XXSP,2013-01-23 13:39:00,
2013-01-23 07:44:00,28.8,18.1,30.32,ESE,112,2.2,3.6,64,0.00,,,0.00,WUHU21623XXSP,2013-01-23 13:44:00,
2013-01-23 07:49:00,29.3,18.6,30.33,SSE,157,0.0,2.9,64,0.00,,,0.00,WUHU21623XXSP,2013-01-23 13:49:00,
2013-01-23 07:54:00,29.7,18.9,30.32,SSE,157,0.0,1.8,64,0.00,,,0.00,WUHU21623XXSP,2013-01-23 13:54:00,
2013-01-23 08:00:00,30.6,19.8,30.33,SE,135,1.6,4.9,64,0.00,,,0.00,WUHU21623XXSP,2013-01-23 14:00:00,
2013-01-23 08:05:00,30.9,20.1,30.32,ESE,112,2.9,4.9,64,0.00,,,0.00,WUHU21623XXSP,2013-01-23 14:05:00,
2013-01-23 08:10:00,31.6,20.8,30.32,ESE,112,3.1,3.6,64,0.00,,,0.00,WUHU21623XXSP,2013-01-23 14:10:00,
2013-01-23 08:15:00,32.2,21.4,30.32,ESE,112,4.3,4.3,64,0.00,,,0.00,WUHU21623XXSP,2013-01-23 14:15:00,
2013-01-23 08:20:00,32.7,21.8,30.33,ESE,112,3.8,4.3,64,0.00,,,0.00,WUHU21623XXSP,2013-01-23 14:20:00,
2013-01-23 08:25:00,32.9,21.6,30.33,SE,135,3.4,3.8,63,0.00,,,0.00,WUHU21623XXSP,2013-01-23 14:25:00,
2013-01-23 08:30:00,33.1,21.8,30.33,SSE,157,1.8,3.4,63,0.00,,,0.00,WUHU21623XXSP,2013-01-23 14:30:00,
2013-01-23 08:35:00,33.4,22.1,30.32,ESE,112,2.7,2.7,63,0.00,,,0.00,WUHU21623XXSP,2013-01-23 14:35:00,
2013-01-23 08:40:00,34.0,22.6,30.33,ESE,112,4.7,4.7,63,0.00,,,0.00,WUHU21623XXSP,2013-01-23 14:40:00,
2013-01-23 08:45:00,34.2,22.5,30.33,ESE,112,3.4,4.7,62,0.00,,,0.00,WUHU21623XXSP,2013-01-23 14:45:00,
2013-01-23 08:50:00,34.5,22.8,30.33,SE,135,2.7,3.4,62,0.00,,,0.00,WUHU21623XXSP,2013-01-23 14:50:00,
2013-01-23 08:55:00,34.7,22.8,30.32,ESE,112,2.7,2.7,62,0.00,,,0.00,WUHU21623XXSP,2013-01-23 14:55:00,
2013-01-23 09:00:00,35.1,23.0,30.32,SE,135,6.3,6.3,61,0.00,,,0.00,WUHU21623XXSP,2013-01-23 15:00:00,
2013-01-23 09:05:00,35.4,23.4,30.31,ESE,112,3.8,6.3,61,0.00,,,0.00,WUHU21623XXSP,2013-01-23 15:05:00,
2013-01-23 09:10:00,35.8,23.7,30.31,SE,135,6.9,6.9,61,0.00,,,0.00,WUHU21623XXSP,2013-01-23 15:10:00,
2013-01-23 09:15:00,36.3,23.8,30.33,South,180,1.6,6.9,60,0.00,,,0.00,WUHU21623XXSP,2013-01-23 15:15:00,
2013-01-23 09:20:00,36.5,24.0,30.33,SSE,157,2.5,3.1,60,0.00,,,0.00,WUHU21623XXSP,2013-01-23 15:20:00,
2013-01-23 09:25:00,36.9,24.3,30.33,SSE,157,1.6,3.1,60,0.00,,,0.00,WUHU21623XXSP,2013-01-23 15:25:00,
2013-01-23 09:30:00,37.8,25.1,30.32,SE,135,5.8,5.8,60,0.00,,,0.00,WUHU21623XXSP,2013-01-23 15:30:00,
2013-01-23 09:35:00,38.1,25.0,30.33,SSE,157,0.0,5.8,59,0.00,,,0.00,WUHU21623XXSP,2013-01-23 15:35:00,
2013-01-23 09:40:00,38.3,25.2,30.33,South,180,0.0,1.6,59,0.00,,,0.00,WUHU21623XXSP,2013-01-23 15:40:00,
2013-01-23 09:45:00,38.8,25.7,30.33,SE,135,2.7,4.7,59,0.00,,,0.00,WUHU21623XXSP,2013-01-23 15:45:00,
2013-01-23 09:50:00,39.4,26.1,30.33,SSE,157,0.0,4.7,59,0.00,,,0.00,WUHU21623XXSP,2013-01-23 15:50:00,
2013-01-23 09:55:00,39.6,26.3,30.33,SSE,157,1.1,3.8,58,0.00,,,0.00,WUHU21623XXSP,2013-01-23 15:55:00,
2013-01-23 10:00:00,39.9,26.3,30.33,SSE,157,0.0,1.6,58,0.00,,,0.00,WUHU21623XXSP,2013-01-23 16:00:00,
2013-01-23 10:05:00,40.1,26.0,30.32,SE,135,1.8,3.6,57,0.00,,,0.00,WUHU21623XXSP,2013-01-23 16:05:00,
2013-01-23 10:10:00,40.5,26.3,30.32,South,180,0.9,4.7,57,0.00,,,0.00,WUHU21623XXSP,2013-01-23 16:10:00,
2013-01-23 10:15:00,41.2,27.0,30.32,South,180,0.9,4.7,57,0.00,,,0.00,WUHU21623XXSP,2013-01-23 16:15:00,
2013-01-23 10:20:00,41.5,27.4,30.31,SE,135,4.5,4.5,57,0.00,,,0.00,WUHU21623XXSP,2013-01-23 16:20:00,
2013-01-23 10:25:00,41.9,27.7,30.32,ESE,112,1.6,4.5,57,0.00,,,0.00,WUHU21623XXSP,2013-01-23 16:25:00,
2013-01-23 10:31:00,42.4,27.8,30.31,South,180,1.3,1.8,56,0.00,,,0.00,WUHU21623XXSP,2013-01-23 16:31:00,
2013-01-23 10:36:00,42.4,27.3,30.31,SE,135,4.5,4.5,55,0.00,,,0.00,WUHU21623XXSP,2013-01-23 16:36:00,
2013-01-23 10:41:00,43.0,27.8,30.31,SE,135,3.1,6.0,55,0.00,,,0.00,WUHU21623XXSP,2013-01-23 16:41:00,
2013-01-23 10:46:00,43.0,27.4,30.31,SSE,157,2.2,6.0,54,0.00,,,0.00,WUHU21623XXSP,2013-01-23 16:46:00,
2013-01-23 10:51:00,43.0,27.4,30.31,South,180,0.0,4.9,54,0.00,,,0.00,WUHU21623XXSP,2013-01-23 16:51:00,
2013-01-23 10:56:00,43.0,27.4,30.31,South,180,0.0,2.7,54,0.00,,,0.00,WUHU21623XXSP,2013-01-23 16:56:00,
2013-01-23 11:01:00,43.2,28.0,30.31,South,180,2.2,2.2,55,0.00,,,0.00,WUHU21623XXSP,2013-01-23 17:01:00,
2013-01-23 11:06:00,43.5,27.9,30.31,South,180,1.8,3.8,54,0.00,,,0.00,WUHU21623XXSP,2013-01-23 17:06:00,
2013-01-23 11:11:00,43.5,27.9,30.31,South,180,2.5,3.8,54,0.00,,,0.00,WUHU21623XXSP,2013-01-23 17:11:00,
2013-01-23 11:16:00,43.3,27.8,30.31,SSW,202,1.6,2.5,54,0.00,,,0.00,WUHU21623XXSP,2013-01-23 17:16:00,
2013-01-23 11:22:00,43.3,27.8,30.30,SSW,202,1.6,1.6,54,0.00,,,0.00,WUHU21623XXSP,2013-01-23 17:22:00,
2013-01-23 11:27:00,43.3,27.8,30.29,SSW,202,1.6,1.6,54,0.00,,,0.00,WUHU21623XXSP,2013-01-23 17:27:00,
2013-01-23 11:32:00,44.2,28.6,30.28,SE,135,5.1,5.1,54,0.00,,,0.00,WUHU21623XXSP,2013-01-23 17:32:00,
2013-01-23 11:37:00,44.8,29.1,30.29,SE,135,1.3,5.1,54,0.00,,,0.00,WUHU21623XXSP,2013-01-23 17:37:00,
2013-01-23 11:42:00,45.1,29.4,30.29,SSE,157,0.0,3.1,54,0.00,,,0.00,WUHU21623XXSP,2013-01-23 17:42:00,
2013-01-23 11:47:00,45.1,29.4,30.28,SSE,157,1.3,1.8,54,0.00,,,0.00,WUHU21623XXSP,2013-01-23 17:47:00,
2013-01-23 11:52:00,45.3,29.6,30.28,SE,135,0.0,1.8,54,0.00,,,0.00,WUHU21623XXSP,2013-01-23 17:52:00,
2013-01-23 11:57:00,45.3,29.6,30.29,SE,135,0.0,1.1,54,0.00,,,0.00,WUHU21623XXSP,2013-01-23 17:57:00,
2013-01-23 12:02:00,45.3,29.6,30.28,SE,135,0.0,0.0,54,0.00,,,0.00,WUHU21623XXSP,2013-01-23 18:02:00,
2013-01-23 12:07:00,45.3,29.6,30.28,SE,135,0.0,0.0,54,0.00,,,0.00,WUHU21623XXSP,2013-01-23 18:07:00,
2013-01-23 12:12:00,45.3,29.6,30.27,SE,135,0.0,0.0,54,0.00,,,0.00,WUHU21623XXSP,2013-01-23 18:12:00,
2013-01-23 12:17:00,45.3,29.6,30.27,SE,135,0.0,0.0,54,0.00,,,0.00,WUHU21623XXSP,2013-01-23 18:17:00,
2013-01-23 12:42:00,46.6,30.7,30.26,ESE,112,0.0,0.0,54,0.00,,,0.00,WUHU21623XXSP,2013-01-23 18:42:00,
2013-01-23 12:47:00,46.9,30.7,30.26,ESE,112,0.0,0.0,54,0.00,,,0.00,WUHU21623XXSP,2013-01-23 18:47:00,
2013-01-23 12:52:00,47.1,31.2,30.25,South,180,2.9,2.9,54,0.00,,,0.00,WUHU21623XXSP,2013-01-23 18:52:00,
2013-01-23 12:57:00,47.7,31.3,30.24,SSE,157,2.7,2.9,53,0.00,,,0.00,WUHU21623XXSP,2013-01-23 18:57:00,
2013-01-23 13:02:00,47.7,31.3,30.23,SSE,157,2.5,2.7,53,0.00,,,0.00,WUHU21623XXSP,2013-01-23 19:02:00,
2013-01-23 13:07:00,47.7,31.3,30.23,SSE,157,2.5,2.7,53,0.00,,,0.00,WUHU21623XXSP,2013-01-23 19:07:00,
2013-01-23 13:12:00,50.2,31.3,30.23,SSE,157,2.5,2.5,53,0.00,,,0.00,WUHU21623XXSP,2013-01-23 19:12:00,
2013-01-23 13:17:00,50.4,33.0,30.23,South,180,0.0,2.5,51,0.00,,,0.00,WUHU21623XXSP,2013-01-23 19:17:00,
2013-01-23 13:22:00,50.7,32.8,30.23,SE,135,3.8,3.8,50,0.00,,,0.00,WUHU21623XXSP,2013-01-23 19:22:00,
2013-01-23 13:27:00,51.3,32.8,30.22,ESE,112,5.4,5.4,49,0.00,,,0.00,WUHU21623XXSP,2013-01-23 19:27:00,
2013-01-23 13:32:00,51.8,33.2,30.22,WSW,247,1.6,5.4,49,0.00,,,0.00,WUHU21623XXSP,2013-01-23 19:32:00,
2013-01-23 13:37:00,52.2,33.0,30.22,SSE,157,3.4,3.4,48,0.00,,,0.00,WUHU21623XXSP,2013-01-23 19:37:00,
2013-01-23 13:42:00,53.1,33.3,30.21,South,180,2.9,6.5,47,0.00,,,0.00,WUHU21623XXSP,2013-01-23 19:42:00,
2013-01-23 13:47:00,53.6,33.2,30.21,NW,315,0.0,6.5,46,0.00,,,0.00,WUHU21623XXSP,2013-01-23 19:47:00,
2013-01-23 13:52:00,53.8,32.8,30.21,East,90,4.0,5.1,45,0.00,,,0.00,WUHU21623XXSP,2013-01-23 19:52:00,
2013-01-23 13:57:00,54.3,33.3,30.21,South,180,1.3,4.7,45,0.00,,,0.00,WUHU21623XXSP,2013-01-23 19:57:00,
2013-01-23 14:02:00,54.5,32.9,30.21,SSE,157,3.6,4.7,44,0.00,,,0.00,WUHU21623XXSP,2013-01-23 20:02:00,
2013-01-23 14:07:00,54.5,32.9,30.21,SE,135,2.5,3.6,44,0.00,,,0.00,WUHU21623XXSP,2013-01-23 20:07:00,
2013-01-23 14:12:00,54.5,32.9,30.21,WSW,247,0.0,4.5,44,0.00,,,0.00,WUHU21623XXSP,2013-01-23 20:12:00,
2013-01-23 14:17:00,54.3,32.2,30.21,WNW,292,0.7,4.5,43,0.00,,,0.00,WUHU21623XXSP,2013-01-23 20:17:00,
2013-01-23 14:22:00,54.0,31.8,30.21,ESE,112,0.0,2.0,43,0.00,,,0.00,WUHU21623XXSP,2013-01-23 20:22:00,
2013-01-23 14:27:00,54.1,32.6,30.21,West,270,4.5,5.6,44,0.00,,,0.00,WUHU21623XXSP,2013-01-23 20:27:00,
2013-01-23 14:32:00,54.1,32.6,30.21,WNW,292,0.9,5.6,44,0.00,,,0.00,WUHU21623XXSP,2013-01-23 20:32:00,
2013-01-23 14:38:00,54.3,32.2,30.20,WNW,292,1.6,5.4,43,0.00,,,0.00,WUHU21623XXSP,2013-01-23 20:38:00,
2013-01-23 14:43:00,54.1,32.0,30.21,West,270,2.9,4.5,43,0.00,,,0.00,WUHU21623XXSP,2013-01-23 20:43:00,
2013-01-23 14:48:00,54.3,32.7,30.21,WNW,292,0.0,4.5,44,0.00,,,0.00,WUHU21623XXSP,2013-01-23 20:48:00,
2013-01-23 14:53:00,54.1,32.0,30.20,SSW,202,0.4,0.4,43,0.00,,,0.00,WUHU21623XXSP,2013-01-23 20:53:00,
2013-01-23 14:58:00,54.1,32.6,30.20,SSW,202,0.0,0.4,44,0.00,,,0.00,WUHU21623XXSP,2013-01-23 20:58:00,
2013-01-23 15:03:00,54.1,32.6,30.20,SSW,202,0.0,0.0,44,0.00,,,0.00,WUHU21623XXSP,2013-01-23 21:03:00,
2013-01-23 15:08:00,54.3,32.7,30.20,SSE,157,0.0,4.5,44,0.00,,,0.00,WUHU21623XXSP,2013-01-23 21:08:00,
2013-01-23 15:13:00,54.1,32.6,30.21,SSE,157,0.0,4.5,44,0.00,,,0.00,WUHU21623XXSP,2013-01-23 21:13:00,
2013-01-23 15:18:00,54.1,32.6,30.20,WSW,247,0.0,0.0,44,0.00,,,0.00,WUHU21623XXSP,2013-01-23 21:18:00,
2013-01-23 15:23:00,54.1,32.6,30.20,WNW,292,0.0,0.0,44,0.00,,,0.00,WUHU21623XXSP,2013-01-23 21:23:00,
2013-01-23 15:28:00,54.1,33.1,30.20,SSW,202,0.0,0.0,45,0.00,,,0.00,WUHU21623XXSP,2013-01-23 21:28:00,
2013-01-23 15:33:00,54.0,33.0,30.20,WNW,292,2.7,4.5,45,0.00,,,0.00,WUHU21623XXSP,2013-01-23 21:33:00,
2013-01-23 15:38:00,54.3,33.8,30.20,SSE,157,3.8,4.5,46,0.00,,,0.00,WUHU21623XXSP,2013-01-23 21:38:00,
2013-01-23 15:43:00,54.5,34.0,30.20,South,180,0.0,3.8,46,0.00,,,0.00,WUHU21623XXSP,2013-01-23 21:43:00,
2013-01-23 15:48:00,55.6,34.4,30.19,SSW,202,0.7,0.7,45,0.00,,,0.00,WUHU21623XXSP,2013-01-23 21:48:00,
2013-01-23 15:53:00,55.8,34.6,30.20,WNW,292,1.8,1.8,45,0.00,,,0.00,WUHU21623XXSP,2013-01-23 21:53:00,
2013-01-23 15:58:00,55.9,34.8,30.19,NW,315,2.0,2.7,45,0.00,,,0.00,WUHU21623XXSP,2013-01-23 21:58:00,
2013-01-23 16:03:00,55.9,34.8,30.19,WNW,292,0.9,2.7,45,0.00,,,0.00,WUHU21623XXSP,2013-01-23 22:03:00,
2013-01-23 16:08:00,56.3,35.1,30.18,SSW,202,0.0,2.0,45,0.00,,,0.00,WUHU21623XXSP,2013-01-23 22:08:00,
2013-01-23 16:13:00,56.8,35.0,30.18,SSW,202,0.0,1.8,44,0.00,,,0.00,WUHU21623XXSP,2013-01-23 22:13:00,
2013-01-23 16:18:00,57.0,35.0,30.18,SSW,202,0.0,1.8,44,0.00,,,0.00,WUHU21623XXSP,2013-01-23 22:18:00,
2013-01-23 16:23:00,57.0,35.2,30.18,SSW,202,0.0,0.0,44,0.00,,,0.00,WUHU21623XXSP,2013-01-23 22:23:00,
2013-01-23 16:29:00,56.7,36.0,30.18,West,270,5.4,5.4,46,0.00,,,0.00,WUHU21623XXSP,2013-01-23 22:29:00,
2013-01-23 16:34:00,56.3,35.7,30.18,WNW,292,3.1,5.4,46,0.00,,,0.00,WUHU21623XXSP,2013-01-23 22:34:00,
2013-01-23 16:39:00,55.9,36.4,30.18,WNW,292,4.5,4.5,48,0.00,,,0.00,WUHU21623XXSP,2013-01-23 22:39:00,
2013-01-23 16:44:00,55.8,36.8,30.18,WNW,292,4.3,4.5,49,0.00,,,0.00,WUHU21623XXSP,2013-01-23 22:44:00,
2013-01-23 16:49:00,55.2,36.3,30.19,NW,315,3.6,4.3,49,0.00,,,0.00,WUHU21623XXSP,2013-01-23 22:49:00,
2013-01-23 16:54:00,54.9,36.6,30.18,WNW,292,0.0,3.6,50,0.00,,,0.00,WUHU21623XXSP,2013-01-23 22:54:00,
2013-01-23 16:59:00,54.9,37.0,30.18,WNW,292,1.8,3.1,51,0.00,,,0.00,WUHU21623XXSP,2013-01-23 22:59:00,
2013-01-23 17:04:00,54.3,36.5,30.18,West,270,0.0,1.8,51,0.00,,,0.00,WUHU21623XXSP,2013-01-23 23:04:00,
2013-01-23 17:09:00,54.0,36.7,30.18,West,270,3.1,3.1,52,0.00,,,0.00,WUHU21623XXSP,2013-01-23 23:09:00,
2013-01-23 17:14:00,54.0,36.7,30.18,West,270,3.1,3.1,52,0.00,,,0.00,WUHU21623XXSP,2013-01-23 23:14:00,
2013-01-23 17:19:00,53.2,36.5,30.18,West,270,0.0,3.1,53,0.00,,,0.00,WUHU21623XXSP,2013-01-23 23:19:00,
2013-01-23 17:24:00,52.9,36.1,30.18,SW,225,0.0,2.0,53,0.00,,,0.00,WUHU21623XXSP,2013-01-23 23:24:00,
2013-01-23 17:29:00,52.7,36.0,30.18,SW,225,0.0,2.0,53,0.00,,,0.00,WUHU21623XXSP,2013-01-23 23:29:00,
2013-01-23 17:34:00,52.3,36.1,30.18,SSW,202,0.0,0.0,54,0.00,,,0.00,WUHU21623XXSP,2013-01-23 23:34:00,
2013-01-23 17:39:00,52.0,36.2,30.18,SSW,202,0.0,0.0,55,0.00,,,0.00,WUHU21623XXSP,2013-01-23 23:39:00,
2013-01-23 17:44:00,51.8,36.0,30.18,SSW,202,0.0,0.0,55,0.00,,,0.00,WUHU21623XXSP,2013-01-23 23:44:00,
2013-01-23 17:49:00,51.3,35.6,30.18,SSW,202,0.0,0.0,55,0.00,,,0.00,WUHU21623XXSP,2013-01-23 23:49:00,
2013-01-23 17:55:00,51.3,36.0,30.18,SSW,202,0.0,3.4,56,0.00,,,0.00,WUHU21623XXSP,2013-01-23 23:55:00,
2013-01-23 18:00:00,51.1,36.3,30.17,SSW,202,0.0,3.4,57,0.00,,,0.00,WUHU21623XXSP,2013-01-24 00:00:00,
2013-01-23 18:05:00,50.9,36.1,30.17,SW,225,0.0,2.5,57,0.00,,,0.00,WUHU21623XXSP,2013-01-24 00:05:00,
2013-01-23 18:10:00,50.7,36.4,30.17,SW,225,3.8,3.8,60,0.00,,,0.00,WUHU21623XXSP,2013-01-24 00:10:00,
2013-01-23 18:15:00,50.5,37.2,30.17,SSW,202,0.0,3.8,60,0.00,,,0.00,WUHU21623XXSP,2013-01-24 00:15:00,
2013-01-23 18:20:00,50.5,37.2,30.17,SSW,202,0.0,0.9,60,0.00,,,0.00,WUHU21623XXSP,2013-01-24 00:20:00,
2013-01-23 18:25:00,50.5,37.2,30.17,SSW,202,0.0,0.0,60,0.00,,,0.00,WUHU21623XXSP,2013-01-24 00:25:00,
2013-01-23 18:30:00,50.5,37.2,30.17,SSW,202,0.0,0.0,60,0.00,,,0.00,WUHU21623XXSP,2013-01-24 00:30:00,
2013-01-23 18:35:00,50.5,37.2,30.17,SSW,202,0.0,0.0,60,0.00,,,0.00,WUHU21623XXSP,2013-01-24 00:35:00,
2013-01-23 18:42:00,49.8,37.3,30.17,SW,225,0.0,0.0,62,0.00,,,0.00,WUHU21623XXSP,2013-01-24 00:42:00,
2013-01-23 18:47:00,49.8,37.3,30.17,WSW,247,0.0,0.0,62,0.00,,,0.00,WUHU21623XXSP,2013-01-24 00:47:00,
2013-01-23 18:52:00,49.5,37.0,30.17,SSW,202,0.0,1.1,62,0.00,,,0.00,WUHU21623XXSP,2013-01-24 00:52:00,
2013-01-23 18:58:00,49.5,37.0,30.17,SSW,202,0.0,1.1,62,0.00,,,0.00,WUHU21623XXSP,2013-01-24 00:58:00,
2013-01-23 19:03:00,49.3,37.2,30.18,SSW,202,0.0,0.0,63,0.00,,,0.00,WUHU21623XXSP,2013-01-24 01:03:00,
2013-01-23 19:08:00,49.1,37.0,30.18,SSW,202,0.0,0.0,63,0.00,,,0.00,WUHU21623XXSP,2013-01-24 01:08:00,
2013-01-23 19:13:00,48.9,37.2,30.18,SSW,202,0.0,0.0,64,0.00,,,0.00,WUHU21623XXSP,2013-01-24 01:13:00,
2013-01-23 19:19:00,48.7,37.1,30.17,SSW,202,0.0,0.0,64,0.00,,,0.00,WUHU21623XXSP,2013-01-24 01:19:00,
2013-01-23 19:24:00,48.4,36.7,30.17,SSW,202,0.0,0.0,64,0.00,,,0.00,WUHU21623XXSP,2013-01-24 01:24:00,
2013-01-23 19:29:00,48.2,37.0,30.17,SSW,202,0.0,0.0,65,0.00,,,0.00,WUHU21623XXSP,2013-01-24 01:29:00,
2013-01-23 19:34:00,48.2,37.1,30.18,SSW,202,0.0,0.0,65,0.00,,,0.00,WUHU21623XXSP,2013-01-24 01:34:00,
2013-01-23 19:39:00,48.0,36.8,30.18,SSW,202,0.0,0.0,65,0.00,,,0.00,WUHU21623XXSP,2013-01-24 01:39:00,
2013-01-23 19:44:00,48.0,36.8,30.18,SSW,202,0.0,0.0,65,0.00,,,0.00,WUHU21623XXSP,2013-01-24 01:44:00,
2013-01-23 19:49:00,48.0,36.8,30.18,SSW,202,0.0,0.0,65,0.00,,,0.00,WUHU21623XXSP,2013-01-24 01:49:00,
2013-01-23 19:54:00,48.0,36.8,30.18,SSW,202,0.0,0.0,65,0.00,,,0.00,WUHU21623XXSP,2013-01-24 01:54:00,
2013-01-23 21:23:00,43.9,34.4,30.20,SSW,202,0.0,0.0,69,0.00,,,0.00,WUHU21623XXSP,2013-01-24 03:23:00,
2013-01-23 21:28:00,43.5,34.2,30.20,SSW,202,0.0,0.0,69,0.00,,,0.00,WUHU21623XXSP,2013-01-24 03:28:00,
2013-01-23 21:33:00,43.3,34.3,30.20,SSW,202,0.0,0.0,70,0.00,,,0.00,WUHU21623XXSP,2013-01-24 03:33:00,
2013-01-23 21:38:00,43.0,34.0,30.20,SSW,202,0.0,0.0,70,0.00,,,0.00,WUHU21623XXSP,2013-01-24 03:38:00,
2013-01-23 21:43:00,42.8,34.0,30.20,SSW,202,0.0,0.0,70,0.00,,,0.00,WUHU21623XXSP,2013-01-24 03:43:00,
2013-01-23 21:48:00,42.4,33.8,30.19,SSW,202,0.0,0.0,71,0.00,,,0.00,WUHU21623XXSP,2013-01-24 03:48:00,
2013-01-23 21:53:00,42.4,33.8,30.20,SSW,202,0.0,0.0,71,0.00,,,0.00,WUHU21623XXSP,2013-01-24 03:53:00,
2013-01-23 21:58:00,42.4,33.8,30.20,SSW,202,0.0,0.0,71,0.00,,,0.00,WUHU21623XXSP,2013-01-24 03:58:00,
2013-01-23 22:03:00,42.4,33.8,30.20,SSW,202,0.0,0.0,71,0.00,,,0.00,WUHU21623XXSP,2013-01-24 04:03:00,
2013-01-23 22:08:00,42.3,33.6,30.19,SSW,202,0.0,0.0,71,0.00,,,0.00,WUHU21623XXSP,2013-01-24 04:08:00,
2013-01-23 22:13:00,42.3,33.7,30.20,SSW,202,0.0,0.0,72,0.00,,,0.00,WUHU21623XXSP,2013-01-24 04:13:00,
2013-01-23 22:18:00,42.1,33.7,30.20,SSW,202,0.0,0.0,72,0.00,,,0.00,WUHU21623XXSP,2013-01-24 04:18:00,
2013-01-23 22:23:00,42.1,34.1,30.20,SSW,202,0.0,0.0,73,0.00,,,0.00,WUHU21623XXSP,2013-01-24 04:23:00,
2013-01-23 22:28:00,42.1,34.1,30.20,SSW,202,0.0,0.0,73,0.00,,,0.00,WUHU21623XXSP,2013-01-24 04:28:00,
2013-01-23 22:33:00,41.9,34.2,30.20,SSW,202,0.0,0.0,74,0.00,,,0.00,WUHU21623XXSP,2013-01-24 04:33:00,
2013-01-23 22:38:00,41.9,34.2,30.20,SSW,202,0.0,0.0,74,0.00,,,0.00,WUHU21623XXSP,2013-01-24 04:38:00,
2013-01-23 22:44:00,41.9,34.5,30.20,SSW,202,0.0,0.0,75,0.00,,,0.00,WUHU21623XXSP,2013-01-24 04:44:00,
2013-01-23 22:49:00,41.9,34.5,30.20,SSW,202,0.0,0.0,75,0.00,,,0.00,WUHU21623XXSP,2013-01-24 04:49:00,
2013-01-23 22:54:00,41.9,34.5,30.20,SSW,202,0.0,0.0,75,0.00,,,0.00,WUHU21623XXSP,2013-01-24 04:54:00,
2013-01-23 22:59:00,41.9,34.5,30.20,SSW,202,0.0,0.0,75,0.00,,,0.00,WUHU21623XXSP,2013-01-24 04:59:00,
2013-01-23 23:00:00,41.9,34.5,30.20,SSW,202,0.0,0.0,75,0.00,,,0.00,WUHU21623XXSP,2013-01-24 05:00:00,
2013-01-23 23:02:00,41.9,34.5,30.20,SSW,202,0.0,0.0,75,0.00,,,0.00,WUHU21623XXSP,2013-01-24 05:02:00,
2013-01-23 23:03:00,41.9,34.5,30.20,SSW,202,0.0,0.0,75,0.00,,,0.00,WUHU21623XXSP,2013-01-24 05:03:00,
2013-01-23 23:08:00,41.9,34.5,30.19,SSW,202,0.0,0.0,75,0.00,,,0.00,WUHU21623XXSP,2013-01-24 05:08:00,
2013-01-23 23:13:00,41.9,34.5,30.19,SSW,202,0.0,0.0,75,0.00,,,0.00,WUHU21623XXSP,2013-01-24 05:13:00,